^^
Grace C. Lehan Memorial Weather Station Historical Data
Daily Summary for January 23, 2022 Units:  Both    English   Metric
Daily Weekly Monthly Yearly
  High: Low: Average:
Temperature: 37.8 °F /  3.2 °C 18.5 °F /  -7.5 °C 27.6 °F /  -2.4 °C
Dew Point: 24.3 °F /  -4.3 °C 10.9 °F /  -11.7 °C 16.2 °F /  -8.8 °C
Humidity: 85% 45.7% 63%
Wind Speed: 3.4mph /  5.5km/h - 0.5mph /  0.8km/h
Wind Gust: 13mph /  20.9km/h - -
Wind- - SSW
Pressure: 30.02 in /  1016.5 hPa 29.73 in /  1006.7 hPa -
Precipitation: 0.01 in /  0.25 mm    
 
 
Tabular Data for January 23, 2022
Time Temperature Dew Point Pressure Wind Wind Speed Wind Gust Humidity Rainfall Rate (Hourly) solar
00:04 20.8 °F /  -6.2 °C 15.8 °F /  -9 °C 30.02in /  1016.5hPa Calm     80.5% 0.00in /  0mm 0 W/m2
00:09 20.7 °F /  -6.3 °C 15.5 °F /  -9.2 °C 30.02in /  1016.5hPa Calm     80% 0.00in /  0mm 0 W/m2
00:14 20.6 °F /  -6.3 °C 15.4 °F /  -9.2 °C 30.02in /  1016.5hPa Calm     80% 0.00in /  0mm 0 W/m2
00:19 20.5 °F /  -6.4 °C 15.3 °F /  -9.3 °C 30.02in /  1016.5hPa Calm     80% 0.00in /  0mm 0 W/m2
00:24 20.4 °F /  -6.4 °C 15.2 °F /  -9.3 °C 30.02in /  1016.5hPa Calm     80% 0.00in /  0mm 0 W/m2
00:29 20.2 °F /  -6.6 °C 15.1 °F /  -9.4 °C 30.01in /  1016.1hPa Calm     80.3% 0.00in /  0mm 0 W/m2
00:34 20.2 °F /  -6.6 °C 15.3 °F /  -9.3 °C 30.01in /  1016.1hPa Calm     81% 0.00in /  0mm 0 W/m2
00:39 20.1 °F /  -6.6 °C 15.2 °F /  -9.3 °C 30.01in /  1016.1hPa Calm     81% 0.00in /  0mm 0 W/m2
00:44 20 °F /  -6.7 °C 15.1 °F /  -9.4 °C 30.02in /  1016.5hPa Calm     81% 0.00in /  0mm 0 W/m2
00:49 19.9 °F /  -6.7 °C 15 °F /  -9.4 °C 30.01in /  1016.1hPa Calm     81% 0.00in /  0mm 0 W/m2
00:54 19.8 °F /  -6.8 °C 14.9 °F /  -9.5 °C 30.01in /  1016.1hPa Calm     81% 0.00in /  0mm 0 W/m2
00:59 19.6 °F /  -6.9 °C 14.9 °F /  -9.5 °C 30.01in /  1016.1hPa Calm     81.3% 0.00in /  0mm 0 W/m2
01:04 19.6 °F /  -6.9 °C 15 °F /  -9.4 °C 30.01in /  1016.1hPa Calm   1mph /  1.6km/h 82% 0.00in /  0mm 0 W/m2
01:09 19.5 °F /  -6.9 °C 14.9 °F /  -9.5 °C 30.00in /  1015.8hPa Calm   1mph /  1.6km/h 82% 0.00in /  0mm 0 W/m2
01:14 19.3 °F /  -7.1 °C 14.7 °F /  -9.6 °C 30.00in /  1015.8hPa Calm   1mph /  1.6km/h 82% 0.00in /  0mm 0 W/m2
01:19 19.1 °F /  -7.2 °C 14.6 °F /  -9.7 °C 30.00in /  1015.8hPa Calm   1mph /  1.6km/h 82% 0.00in /  0mm 0 W/m2
01:24 19 °F /  -7.2 °C 14.4 °F /  -9.8 °C 30.00in /  1015.8hPa Calm   1mph /  1.6km/h 82% 0.00in /  0mm 0 W/m2
01:29 18.9 °F /  -7.3 °C 14.4 °F /  -9.8 °C 30.00in /  1015.8hPa Calm   1mph /  1.6km/h 82.3% 0.00in /  0mm 0 W/m2
01:34 18.8 °F /  -7.3 °C 14.5 °F /  -9.7 °C 29.99in /  1015.5hPa Calm   1mph /  1.6km/h 83% 0.00in /  0mm 0 W/m2
01:39 18.8 °F /  -7.3 °C 14.5 °F /  -9.7 °C 29.99in /  1015.5hPa Calm     83% 0.00in /  0mm 0 W/m2
01:44 18.7 °F /  -7.4 °C 14.4 °F /  -9.8 °C 29.99in /  1015.5hPa Calm     83% 0.00in /  0mm 0 W/m2
01:49 18.6 °F /  -7.4 °C 14.5 °F /  -9.7 °C 29.99in /  1015.5hPa Calm     83.6% 0.00in /  0mm 0 W/m2
01:54 18.5 °F /  -7.5 °C 14.5 °F /  -9.7 °C 29.98in /  1015.1hPa Calm     84% 0.00in /  0mm 0 W/m2
01:59 18.5 °F /  -7.5 °C 14.5 °F /  -9.7 °C 29.98in /  1015.1hPa Calm     84% 0.00in /  0mm 0 W/m2
02:04 18.5 °F /  -7.5 °C 14.6 °F /  -9.7 °C 29.98in /  1015.1hPa Calm     84.3% 0.00in /  0mm 0 W/m2
02:09 18.6 °F /  -7.4 °C 14.9 °F /  -9.5 °C 29.98in /  1015.1hPa Calm     85% 0.00in /  0mm 0 W/m2
02:14 18.7 °F /  -7.4 °C 15 °F /  -9.4 °C 29.98in /  1015.1hPa Calm     85% 0.00in /  0mm 0 W/m2
02:19 18.8 °F /  -7.3 °C 15.1 °F /  -9.4 °C 29.98in /  1015.1hPa NNE 0.2mph /  0.3km/h 3mph /  4.8km/h 85% 0.00in /  0mm 0 W/m2
02:24 19.1 °F /  -7.2 °C 15.3 °F /  -9.3 °C 29.98in /  1015.1hPa Calm   3mph /  4.8km/h 84.8% 0.00in /  0mm 0 W/m2
02:29 19.3 °F /  -7.1 °C 15.3 °F /  -9.3 °C 29.98in /  1015.1hPa Calm   3mph /  4.8km/h 84% 0.00in /  0mm 0 W/m2
02:34 19.6 °F /  -6.9 °C 15.3 °F /  -9.3 °C 29.98in /  1015.1hPa NE 0.1mph /  0.2km/h 3mph /  4.8km/h 83.1% 0.00in /  0mm 0 W/m2
02:39 20 °F /  -6.7 °C 15.3 °F /  -9.3 °C 29.98in /  1015.1hPa NNE 0.1mph /  0.2km/h 3mph /  4.8km/h 81.6% 0.00in /  0mm 0 W/m2
02:44 20.4 °F /  -6.4 °C 15.2 °F /  -9.3 °C 29.98in /  1015.1hPa Calm   3mph /  4.8km/h 80% 0.00in /  0mm 0 W/m2
02:49 20.8 °F /  -6.2 °C 15 °F /  -9.4 °C 29.98in /  1015.1hPa Calm   3mph /  4.8km/h 77.9% 0.00in /  0mm 0 W/m2
02:54 21 °F /  -6.1 °C 14.8 °F /  -9.6 °C 29.98in /  1015.1hPa Calm   3mph /  4.8km/h 76.5% 0.00in /  0mm 0 W/m2
02:59 21.2 °F /  -6 °C 14.7 °F /  -9.6 °C 29.98in /  1015.1hPa Calm   3mph /  4.8km/h 75.5% 0.00in /  0mm 0 W/m2
03:04 21.3 °F /  -5.9 °C 14.4 °F /  -9.8 °C 29.97in /  1014.8hPa Calm   3mph /  4.8km/h 74.2% 0.00in /  0mm 0 W/m2
03:09 21.4 °F /  -5.9 °C 14.4 °F /  -9.8 °C 29.97in /  1014.8hPa Calm     73.8% 0.00in /  0mm 0 W/m2
03:14 21.4 °F /  -5.9 °C 14.1 °F /  -9.9 °C 29.97in /  1014.8hPa Calm     73% 0.00in /  0mm 0 W/m2
03:19 21.3 °F /  -5.9 °C 14 °F /  -10 °C 29.97in /  1014.8hPa Calm     72.8% 0.00in /  0mm 0 W/m2
03:24 21.3 °F /  -5.9 °C 13.7 °F /  -10.2 °C 29.96in /  1014.4hPa Calm     72% 0.00in /  0mm 0 W/m2
03:29 21.3 °F /  -5.9 °C 13.7 °F /  -10.2 °C 29.96in /  1014.4hPa Calm     72% 0.00in /  0mm 0 W/m2
03:34 21.3 °F /  -5.9 °C 13.7 °F /  -10.2 °C 29.96in /  1014.4hPa Calm     72% 0.00in /  0mm 0 W/m2
03:39 21.2 °F /  -6 °C 13.3 °F /  -10.4 °C 29.96in /  1014.4hPa Calm     71.1% 0.00in /  0mm 0 W/m2
03:44 21.1 °F /  -6.1 °C 13.2 °F /  -10.4 °C 29.96in /  1014.4hPa NNE 0.1mph /  0.2km/h 2mph /  3.2km/h 71% 0.00in /  0mm 0 W/m2
03:49 21.1 °F /  -6.1 °C 13.2 °F /  -10.4 °C 29.96in /  1014.4hPa NNE 0.1mph /  0.2km/h 3mph /  4.8km/h 71% 0.00in /  0mm 0 W/m2
03:54 21.1 °F /  -6.1 °C 12.9 °F /  -10.6 °C 29.95in /  1014.1hPa Calm   3mph /  4.8km/h 70% 0.00in /  0mm 0 W/m2
03:59 21.1 °F /  -6.1 °C 12.8 °F /  -10.7 °C 29.95in /  1014.1hPa Calm   3mph /  4.8km/h 70% 0.00in /  0mm 0 W/m2
04:04 20.9 °F /  -6.2 °C 12.7 °F /  -10.7 °C 29.94in /  1013.8hPa Calm     70% 0.00in /  0mm 0 W/m2
04:09 20.9 °F /  -6.2 °C 12.6 °F /  -10.8 °C 29.94in /  1013.8hPa NNE 0.2mph /  0.3km/h 2mph /  3.2km/h 70% 0.00in /  0mm 0 W/m2
04:14 20.8 °F /  -6.2 °C 12.6 °F /  -10.8 °C 29.94in /  1013.8hPa Calm   2mph /  3.2km/h 70% 0.00in /  0mm 0 W/m2
04:19 20.7 °F /  -6.3 °C 12.5 °F /  -10.8 °C 29.94in /  1013.8hPa Calm   2mph /  3.2km/h 70% 0.00in /  0mm 0 W/m2
04:24 20.6 °F /  -6.3 °C 12.4 °F /  -10.9 °C 29.94in /  1013.8hPa Calm   2mph /  3.2km/h 70% 0.00in /  0mm 0 W/m2
04:29 20.5 °F /  -6.4 °C 12.1 °F /  -11.1 °C 29.94in /  1013.8hPa Calm   2mph /  3.2km/h 69.4% 0.00in /  0mm 0 W/m2
04:34 20.4 °F /  -6.4 °C 12 °F /  -11.1 °C 29.94in /  1013.8hPa Calm   2mph /  3.2km/h 69.4% 0.00in /  0mm 0 W/m2
04:39 20.3 °F /  -6.5 °C 12 °F /  -11.1 °C 29.94in /  1013.8hPa Calm     69.8% 0.00in /  0mm 0 W/m2
04:44 20.2 °F /  -6.6 °C 11.6 °F /  -11.3 °C 29.94in /  1013.8hPa Calm     69% 0.00in /  0mm 0 W/m2
04:49 20.1 °F /  -6.6 °C 11.6 °F /  -11.3 °C 29.94in /  1013.8hPa Calm     69% 0.00in /  0mm 0 W/m2
04:54 20 °F /  -6.7 °C 11.5 °F /  -11.4 °C 29.94in /  1013.8hPa Calm     69% 0.00in /  0mm 0 W/m2
04:59 20 °F /  -6.7 °C 11.5 °F /  -11.4 °C 29.94in /  1013.8hPa Calm     69% 0.00in /  0mm 0 W/m2
05:04 20 °F /  -6.7 °C 11.8 °F /  -11.2 °C 29.93in /  1013.4hPa Calm     70% 0.00in /  0mm 0 W/m2
05:09 19.9 °F /  -6.7 °C 11.6 °F /  -11.3 °C 29.93in /  1013.4hPa Calm     69.6% 0.00in /  0mm 0 W/m2
05:14 19.8 °F /  -6.8 °C 11.3 °F /  -11.5 °C 29.93in /  1013.4hPa NNE 0.7mph /  1.1km/h 2mph /  3.2km/h 69% 0.00in /  0mm 0 W/m2
05:19 19.8 °F /  -6.8 °C 11.3 °F /  -11.5 °C 29.93in /  1013.4hPa NNE 0.2mph /  0.3km/h 3mph /  4.8km/h 69% 0.00in /  0mm 0 W/m2
05:24 19.8 °F /  -6.8 °C 11.3 °F /  -11.5 °C 29.93in /  1013.4hPa Calm   3mph /  4.8km/h 69% 0.00in /  0mm 0 W/m2
05:29 19.8 °F /  -6.8 °C 11.3 °F /  -11.5 °C 29.93in /  1013.4hPa Calm   3mph /  4.8km/h 69% 0.00in /  0mm 0 W/m2
05:34 19.7 °F /  -6.8 °C 11.2 °F /  -11.6 °C 29.93in /  1013.4hPa Calm   3mph /  4.8km/h 69% 0.00in /  0mm 0 W/m2
05:39 19.7 °F /  -6.8 °C 11.2 °F /  -11.6 °C 29.93in /  1013.4hPa Calm     69% 0.00in /  0mm 0 W/m2
05:44 19.7 °F /  -6.8 °C 11.2 °F /  -11.6 °C 29.93in /  1013.4hPa NNE 0.1mph /  0.2km/h 2mph /  3.2km/h 69% 0.00in /  0mm 0 W/m2
05:49 19.7 °F /  -6.8 °C 11 °F /  -11.7 °C 29.93in /  1013.4hPa NNE 0.3mph /  0.5km/h 2mph /  3.2km/h 68.5% 0.00in /  0mm 0 W/m2
05:54 19.7 °F /  -6.8 °C 10.9 °F /  -11.7 °C 29.93in /  1013.4hPa NNE 0.2mph /  0.3km/h 2mph /  3.2km/h 68% 0.00in /  0mm 0 W/m2
05:59 19.7 °F /  -6.8 °C 10.9 °F /  -11.7 °C 29.93in /  1013.4hPa NNE 0.3mph /  0.5km/h 3mph /  4.8km/h 68% 0.00in /  0mm 0 W/m2
06:04 19.8 °F /  -6.8 °C 10.9 °F /  -11.7 °C 29.93in /  1013.4hPa NNE 0.4mph /  0.6km/h 3mph /  4.8km/h 68% 0.00in /  0mm 0 W/m2
06:09 19.9 °F /  -6.7 °C 11 °F /  -11.7 °C 29.93in /  1013.4hPa NNE 0.1mph /  0.2km/h 2mph /  3.2km/h 68% 0.00in /  0mm 0 W/m2
06:14 19.9 °F /  -6.7 °C 10.9 °F /  -11.7 °C 29.93in /  1013.4hPa NNE 0.2mph /  0.3km/h 3mph /  4.8km/h 67.4% 0.00in /  0mm 0 W/m2
06:19 20 °F /  -6.7 °C 11 °F /  -11.7 °C 29.93in /  1013.4hPa NNE 0.2mph /  0.3km/h 3mph /  4.8km/h 67.5% 0.00in /  0mm 0 W/m2
06:24 20.1 °F /  -6.6 °C 10.9 °F /  -11.7 °C 29.93in /  1013.4hPa NNE 0.3mph /  0.5km/h 3mph /  4.8km/h 67% 0.00in /  0mm 0 W/m2
06:29 20.2 °F /  -6.6 °C 11 °F /  -11.7 °C 29.93in /  1013.4hPa NNE 0.4mph /  0.6km/h 3mph /  4.8km/h 67% 0.00in /  0mm 0 W/m2
06:34 20.3 °F /  -6.5 °C 11.1 °F /  -11.6 °C 29.94in /  1013.8hPa NNE 0.4mph /  0.6km/h 3mph /  4.8km/h 67% 0.00in /  0mm 0 W/m2
06:39 20.4 °F /  -6.4 °C 10.9 °F /  -11.7 °C 29.93in /  1013.4hPa NNE 0.2mph /  0.3km/h 3mph /  4.8km/h 66% 0.00in /  0mm 0 W/m2
06:44 20.6 °F /  -6.3 °C 11 °F /  -11.7 °C 29.93in /  1013.4hPa NNE 0.1mph /  0.2km/h 3mph /  4.8km/h 66% 0.00in /  0mm 0 W/m2
06:49 20.7 °F /  -6.3 °C 11.2 °F /  -11.6 °C 29.93in /  1013.4hPa Calm   3mph /  4.8km/h 66% 0.00in /  0mm 0 W/m2
06:54 20.9 °F /  -6.2 °C 11.3 °F /  -11.5 °C 29.93in /  1013.4hPa NNE 0.1mph /  0.2km/h 3mph /  4.8km/h 66% 0.00in /  0mm 0 W/m2
06:59 21.1 °F /  -6.1 °C 11.5 °F /  -11.4 °C 29.93in /  1013.4hPa Calm   3mph /  4.8km/h 66% 0.00in /  0mm 0 W/m2
07:04 21.1 °F /  -6.1 °C 11.6 °F /  -11.3 °C 29.92in /  1013.1hPa Calm   3mph /  4.8km/h 66% 0.00in /  0mm 0 W/m2
07:09 21.2 °F /  -6 °C 11.6 °F /  -11.3 °C 29.92in /  1013.1hPa Calm     66% 0.00in /  0mm 7 W/m2
07:14 21.2 °F /  -6 °C 11.7 °F /  -11.3 °C 29.92in /  1013.1hPa Calm     66% 0.00in /  0mm 12 W/m2
07:19 21.3 °F /  -5.9 °C 11.6 °F /  -11.3 °C 29.93in /  1013.4hPa Calm     65.5% 0.00in /  0mm 14 W/m2
07:24 21.5 °F /  -5.8 °C 11.6 °F /  -11.3 °C 29.93in /  1013.4hPa Calm     65% 0.00in /  0mm 23 W/m2
07:29 21.7 °F /  -5.7 °C 11.6 °F /  -11.3 °C 29.92in /  1013.1hPa Calm     64.4% 0.00in /  0mm 26 W/m2
07:34 22 °F /  -5.6 °C 11.7 °F /  -11.3 °C 29.92in /  1013.1hPa Calm     64% 0.00in /  0mm 28 W/m2
07:39 22.2 °F /  -5.4 °C 11.9 °F /  -11.2 °C 29.92in /  1013.1hPa Calm     64% 0.00in /  0mm 25 W/m2
07:44 22.4 °F /  -5.3 °C 11.9 °F /  -11.2 °C 29.92in /  1013.1hPa Calm     63.5% 0.00in /  0mm 21 W/m2
07:49 22.5 °F /  -5.3 °C 12 °F /  -11.1 °C 29.92in /  1013.1hPa Calm     63.5% 0.00in /  0mm 28 W/m2
07:54 22.5 °F /  -5.3 °C 12.1 °F /  -11.1 °C 29.92in /  1013.1hPa Calm     63.7% 0.00in /  0mm 35 W/m2
07:59 22.6 °F /  -5.2 °C 12.3 °F /  -10.9 °C 29.92in /  1013.1hPa NNE 0.2mph /  0.3km/h 2mph /  3.2km/h 64% 0.00in /  0mm 37 W/m2
08:09 22.9 °F /  -5.1 °C 12.5 °F /  -10.8 °C 29.92in /  1013.1hPa NNE 0.2mph /  0.3km/h 2mph /  3.2km/h 64% 0.00in /  0mm 39 W/m2
08:14 22.9 °F /  -5.1 °C 12.9 °F /  -10.6 °C 29.92in /  1013.1hPa NNE 0.1mph /  0.2km/h 2mph /  3.2km/h 64.8% 0.00in /  0mm 42 W/m2
08:19 23 °F /  -5 °C 13 °F /  -10.6 °C 29.92in /  1013.1hPa NNE 0.3mph /  0.5km/h 3mph /  4.8km/h 65% 0.00in /  0mm 46 W/m2
08:24 23 °F /  -5 °C 13 °F /  -10.6 °C 29.92in /  1013.1hPa NNE 0.4mph /  0.6km/h 3mph /  4.8km/h 65% 0.00in /  0mm 49 W/m2
08:29 23.2 °F /  -4.9 °C 12.8 °F /  -10.7 °C 29.91in /  1012.8hPa NNE 0.3mph /  0.5km/h 3mph /  4.8km/h 64% 0.00in /  0mm 63 W/m2
08:34 23.3 °F /  -4.8 °C 12.8 °F /  -10.7 °C 29.91in /  1012.8hPa NW 0.7mph /  1.1km/h 7mph /  11.3km/h 63.7% 0.00in /  0mm 67 W/m2
08:39 23.5 °F /  -4.7 °C 12.7 °F /  -10.7 °C 29.91in /  1012.8hPa Calm   7mph /  11.3km/h 63% 0.00in /  0mm 72 W/m2
08:44 23.7 °F /  -4.6 °C 12.8 °F /  -10.7 °C 29.91in /  1012.8hPa Calm   7mph /  11.3km/h 62.6% 0.00in /  0mm 79 W/m2
08:49 23.8 °F /  -4.6 °C 13.1 °F /  -10.5 °C 29.90in /  1012.4hPa Calm   7mph /  11.3km/h 63% 0.00in /  0mm 88 W/m2
08:54 24.1 °F /  -4.4 °C 13.1 °F /  -10.5 °C 29.91in /  1012.8hPa Calm   7mph /  11.3km/h 62.5% 0.00in /  0mm 95 W/m2
08:59 24.3 °F /  -4.3 °C 12.9 °F /  -10.6 °C 29.91in /  1012.8hPa WSW 0.3mph /  0.5km/h 7mph /  11.3km/h 61.3% 0.00in /  0mm 120 W/m2
09:04 24.5 °F /  -4.2 °C 13.2 °F /  -10.4 °C 29.91in /  1012.8hPa Calm   7mph /  11.3km/h 61.6% 0.00in /  0mm 123 W/m2
09:09 24.7 °F /  -4.1 °C 13.6 °F /  -10.2 °C 29.90in /  1012.4hPa WSW 0.1mph /  0.2km/h 2mph /  3.2km/h 62% 0.00in /  0mm 121 W/m2
09:14 25 °F /  -3.9 °C 14 °F /  -10 °C 29.90in /  1012.4hPa WSW 0.1mph /  0.2km/h 2mph /  3.2km/h 62.4% 0.00in /  0mm 113 W/m2
09:19 25.3 °F /  -3.7 °C 14 °F /  -10 °C 29.90in /  1012.4hPa Calm   2mph /  3.2km/h 61.7% 0.00in /  0mm 113 W/m2
09:24 25.6 °F /  -3.6 °C 13.8 °F /  -10.1 °C 29.90in /  1012.4hPa WSW 0.4mph /  0.6km/h 4mph /  6.4km/h 60.5% 0.00in /  0mm 120 W/m2
09:29 25.8 °F /  -3.4 °C 13.8 °F /  -10.1 °C 29.89in /  1012.1hPa WSW 0.3mph /  0.5km/h 4mph /  6.4km/h 59.8% 0.00in /  0mm 127 W/m2
09:34 26.1 °F /  -3.3 °C 13.8 °F /  -10.1 °C 29.89in /  1012.1hPa WSW 1.3mph /  2.1km/h 5mph /  8km/h 59.3% 0.00in /  0mm 127 W/m2
09:39 26.3 °F /  -3.2 °C 13.9 °F /  -10.1 °C 29.89in /  1012.1hPa WSW 0.7mph /  1.1km/h 5mph /  8km/h 58.8% 0.00in /  0mm 118 W/m2
09:44 26.5 °F /  -3.1 °C 13.9 °F /  -10.1 °C 29.89in /  1012.1hPa WSW 0.2mph /  0.3km/h 5mph /  8km/h 58.4% 0.00in /  0mm 134 W/m2
09:49 26.7 °F /  -2.9 °C 13.9 °F /  -10.1 °C 29.89in /  1012.1hPa WSW 0.1mph /  0.2km/h 5mph /  8km/h 58% 0.00in /  0mm 137 W/m2
09:54 27 °F /  -2.8 °C 14.4 °F /  -9.8 °C 29.89in /  1012.1hPa Calm   5mph /  8km/h 58.6% 0.00in /  0mm 162 W/m2
09:59 27.2 °F /  -2.7 °C 14.6 °F /  -9.7 °C 29.90in /  1012.4hPa WSW 1mph /  1.6km/h 5mph /  8km/h 58.4% 0.00in /  0mm 176 W/m2
10:04 27.5 °F /  -2.5 °C 14.7 °F /  -9.6 °C 29.90in /  1012.4hPa WSW 0.1mph /  0.2km/h 5mph /  8km/h 58.2% 0.00in /  0mm 178 W/m2
10:09 27.7 °F /  -2.4 °C 14.8 °F /  -9.6 °C 29.90in /  1012.4hPa WSW 0.1mph /  0.2km/h 2mph /  3.2km/h 57.8% 0.00in /  0mm 174 W/m2
10:14 28.1 °F /  -2.2 °C 15.2 °F /  -9.3 °C 29.89in /  1012.1hPa Calm   2mph /  3.2km/h 58% 0.00in /  0mm 186 W/m2
10:19 28.4 °F /  -2 °C 15.3 °F /  -9.3 °C 29.89in /  1012.1hPa WSW 0.8mph /  1.3km/h 6mph /  9.7km/h 57.4% 0.00in /  0mm 185 W/m2
10:24 28.7 °F /  -1.8 °C 14.9 °F /  -9.5 °C 29.89in /  1012.1hPa West 1.9mph /  3.1km/h 6mph /  9.7km/h 55.9% 0.00in /  0mm 186 W/m2
10:29 28.7 °F /  -1.8 °C 14.6 °F /  -9.7 °C 29.89in /  1012.1hPa West 0.4mph /  0.6km/h 6mph /  9.7km/h 55% 0.00in /  0mm 181 W/m2
10:34 28.8 °F /  -1.8 °C 14.8 °F /  -9.6 °C 29.89in /  1012.1hPa West 0.3mph /  0.5km/h 6mph /  9.7km/h 55.2% 0.00in /  0mm 216 W/m2
10:39 29 °F /  -1.7 °C 15.5 °F /  -9.2 °C 29.89in /  1012.1hPa WSW 0.2mph /  0.3km/h 5mph /  8km/h 56.5% 0.00in /  0mm 294 W/m2
10:44 29.4 °F /  -1.4 °C 15.4 °F /  -9.2 °C 29.88in /  1011.7hPa WSW 1mph /  1.6km/h 5mph /  8km/h 55.5% 0.00in /  0mm 346 W/m2
10:49 29.8 °F /  -1.2 °C 16 °F /  -8.9 °C 29.88in /  1011.7hPa WSW 0.7mph /  1.1km/h 6mph /  9.7km/h 55.8% 0.00in /  0mm 346 W/m2
10:54 30.3 °F /  -0.9 °C 16.8 °F /  -8.4 °C 29.87in /  1011.4hPa WSW 0.1mph /  0.2km/h 6mph /  9.7km/h 56.6% 0.00in /  0mm 341 W/m2
10:59 30.7 °F /  -0.7 °C 16.6 °F /  -8.6 °C 29.87in /  1011.4hPa West 1.7mph /  2.7km/h 6mph /  9.7km/h 55.4% 0.00in /  0mm 369 W/m2
11:04 31 °F /  -0.6 °C 16.6 °F /  -8.6 °C 29.87in /  1011.4hPa WSW 2.1mph /  3.4km/h 6mph /  9.7km/h 54.6% 0.00in /  0mm 369 W/m2
11:09 31.1 °F /  -0.5 °C 15.9 °F /  -8.9 °C 29.86in /  1011.1hPa SW 1.5mph /  2.4km/h 7mph /  11.3km/h 52.8% 0.00in /  0mm 248 W/m2
11:14 31.1 °F /  -0.5 °C 16.3 °F /  -8.7 °C 29.86in /  1011.1hPa SW 0.6mph /  1km/h 7mph /  11.3km/h 53.7% 0.00in /  0mm 206 W/m2
11:19 31.4 °F /  -0.3 °C 16.7 °F /  -8.5 °C 29.86in /  1011.1hPa SW 1.6mph /  2.6km/h 7mph /  11.3km/h 54% 0.00in /  0mm 330 W/m2
11:24 31.8 °F /  -0.1 °C 17 °F /  -8.3 °C 29.85in /  1010.7hPa SW 1.7mph /  2.7km/h 7mph /  11.3km/h 53.9% 0.00in /  0mm 330 W/m2
11:29 32.1 °F /  0.1 °C 16.7 °F /  -8.5 °C 29.85in /  1010.7hPa SW 0.9mph /  1.4km/h 7mph /  11.3km/h 52.6% 0.00in /  0mm 216 W/m2
11:34 32.2 °F /  0.1 °C 17 °F /  -8.3 °C 29.84in /  1010.4hPa SW 0.5mph /  0.8km/h 7mph /  11.3km/h 52.9% 0.00in /  0mm 153 W/m2
11:39 32.2 °F /  0.1 °C 17.2 °F /  -8.2 °C 29.84in /  1010.4hPa SW 0.3mph /  0.5km/h 3mph /  4.8km/h 53.4% 0.00in /  0mm 292 W/m2
11:44 32.4 °F /  0.2 °C 17.3 °F /  -8.2 °C 29.84in /  1010.4hPa SW 0.1mph /  0.2km/h 3mph /  4.8km/h 53.4% 0.00in /  0mm 192 W/m2
11:49 32.7 °F /  0.4 °C 17.3 °F /  -8.2 °C 29.84in /  1010.4hPa SW 1.2mph /  1.9km/h 5mph /  8km/h 52.5% 0.00in /  0mm 257 W/m2
11:54 33 °F /  0.6 °C 17.5 °F /  -8.1 °C 29.83in /  1010hPa SW 0.3mph /  0.5km/h 5mph /  8km/h 52.3% 0.00in /  0mm 135 W/m2
11:59 33.3 °F /  0.7 °C 18 °F /  -7.8 °C 29.83in /  1010hPa SW 0.3mph /  0.5km/h 5mph /  8km/h 53% 0.00in /  0mm 223 W/m2
12:00 33.4 °F /  0.8 °C 18.1 °F /  -7.7 °C 29.83in /  1010hPa Calm   5mph /  8km/h 53% 0.00in /  0mm 211 W/m2
12:09 33.8 °F /  1 °C 18 °F /  -7.8 °C 29.82in /  1009.7hPa SW 0.2mph /  0.3km/h 3mph /  4.8km/h 51.8% 0.00in /  0mm 207 W/m2
12:14 34 °F /  1.1 °C 17.7 °F /  -7.9 °C 29.82in /  1009.7hPa SW 0.2mph /  0.3km/h 3mph /  4.8km/h 50.8% 0.00in /  0mm 186 W/m2
12:19 34 °F /  1.1 °C 17.3 °F /  -8.2 °C 29.81in /  1009.4hPa SW 0.1mph /  0.2km/h 3mph /  4.8km/h 49.9% 0.00in /  0mm 162 W/m2
12:24 34.2 °F /  1.2 °C 18 °F /  -7.8 °C 29.81in /  1009.4hPa SW 0.5mph /  0.8km/h 3mph /  4.8km/h 51% 0.00in /  0mm 316 W/m2
12:29 34.4 °F /  1.3 °C 18 °F /  -7.8 °C 29.81in /  1009.4hPa SW 1.5mph /  2.4km/h 5mph /  8km/h 50.5% 0.00in /  0mm 285 W/m2
12:34 34.6 °F /  1.4 °C 17.9 °F /  -7.8 °C 29.81in /  1009.4hPa SW 1.6mph /  2.6km/h 5mph /  8km/h 49.9% 0.00in /  0mm 206 W/m2
12:39 34.9 °F /  1.6 °C 18.1 °F /  -7.7 °C 29.80in /  1009hPa SW 1.5mph /  2.4km/h 5mph /  8km/h 49.9% 0.00in /  0mm 206 W/m2
12:44 35.1 °F /  1.7 °C 18.4 °F /  -7.6 °C 29.80in /  1009hPa SW 0.1mph /  0.2km/h 5mph /  8km/h 50.3% 0.00in /  0mm 213 W/m2
12:49 35.2 °F /  1.8 °C 18.2 °F /  -7.7 °C 29.79in /  1008.7hPa SW 0.5mph /  0.8km/h 5mph /  8km/h 49.6% 0.00in /  0mm 181 W/m2
12:54 35.3 °F /  1.8 °C 18.4 °F /  -7.6 °C 29.79in /  1008.7hPa WSW 1.9mph /  3.1km/h 6mph /  9.7km/h 49.9% 0.00in /  0mm 181 W/m2
12:59 35.4 °F /  1.9 °C 19 °F /  -7.2 °C 29.78in /  1008.4hPa WSW 2.4mph /  3.9km/h 10mph /  16.1km/h 50.7% 0.00in /  0mm 188 W/m2
13:04 35.6 °F /  2 °C 19 °F /  -7.2 °C 29.78in /  1008.4hPa WSW 2mph /  3.2km/h 10mph /  16.1km/h 50.4% 0.00in /  0mm 178 W/m2
13:09 35.9 °F /  2.2 °C 18.9 °F /  -7.3 °C 29.78in /  1008.4hPa SW 1.4mph /  2.3km/h 9mph /  14.5km/h 49.7% 0.00in /  0mm 132 W/m2
13:14 36 °F /  2.2 °C 18.9 °F /  -7.3 °C 29.78in /  1008.4hPa SW 1.8mph /  2.9km/h 9mph /  14.5km/h 49.4% 0.00in /  0mm 171 W/m2
13:19 36.2 °F /  2.3 °C 18.8 °F /  -7.3 °C 29.78in /  1008.4hPa SW 2.1mph /  3.4km/h 9mph /  14.5km/h 48.8% 0.00in /  0mm 176 W/m2
13:24 36.5 °F /  2.5 °C 19 °F /  -7.2 °C 29.77in /  1008hPa SW 1.6mph /  2.6km/h 9mph /  14.5km/h 48.7% 0.00in /  0mm 294 W/m2
13:29 36.6 °F /  2.6 °C 18.8 °F /  -7.3 °C 29.77in /  1008hPa SW 0.8mph /  1.3km/h 9mph /  14.5km/h 48% 0.01in /  0.25mm 417 W/m2
13:34 36.6 °F /  2.6 °C 18.8 °F /  -7.3 °C 29.77in /  1008hPa SW 2.2mph /  3.5km/h 9mph /  14.5km/h 48% 0.01in /  0.25mm 243 W/m2
13:39 36.8 °F /  2.7 °C 19.2 °F /  -7.1 °C 29.76in /  1007.7hPa WSW 1.8mph /  2.9km/h 9mph /  14.5km/h 48.5% 0.01in /  0.25mm 176 W/m2
13:44 36.8 °F /  2.7 °C 18.8 °F /  -7.3 °C 29.77in /  1008hPa WSW 3.4mph /  5.5km/h 13mph /  20.9km/h 47.7% 0.01in /  0.25mm 221 W/m2
13:49 36.8 °F /  2.7 °C 18.9 °F /  -7.3 °C 29.77in /  1008hPa WSW 3.3mph /  5.3km/h 13mph /  20.9km/h 47.9% 0.01in /  0.25mm 195 W/m2
13:54 36.9 °F /  2.7 °C 19.1 °F /  -7.2 °C 29.77in /  1008hPa WSW 2.2mph /  3.5km/h 13mph /  20.9km/h 48.2% 0.01in /  0.25mm 302 W/m2
13:59 37 °F /  2.8 °C 19.3 °F /  -7.1 °C 29.76in /  1007.7hPa SW 2.1mph /  3.4km/h 13mph /  20.9km/h 48.3% 0.01in /  0.25mm 262 W/m2
14:04 37.1 °F /  2.8 °C 19 °F /  -7.2 °C 29.76in /  1007.7hPa SW 2.8mph /  4.5km/h 13mph /  20.9km/h 47.5% 0.01in /  0.25mm 223 W/m2
14:09 37.2 °F /  2.9 °C 19.3 °F /  -7.1 °C 29.76in /  1007.7hPa WSW 1.3mph /  2.1km/h 9mph /  14.5km/h 47.8% 0.01in /  0.25mm 204 W/m2
14:14 37.4 °F /  3 °C 19.3 °F /  -7.1 °C 29.76in /  1007.7hPa WSW 2mph /  3.2km/h 11mph /  17.7km/h 47.6% 0.01in /  0.25mm 192 W/m2
14:19 37.7 °F /  3.2 °C 19.4 °F /  -7 °C 29.76in /  1007.7hPa WSW 0.6mph /  1km/h 11mph /  17.7km/h 47.2% 0.01in /  0.25mm 243 W/m2
14:24 37.8 °F /  3.2 °C 19.4 °F /  -7 °C 29.76in /  1007.7hPa WSW 0.5mph /  0.8km/h 11mph /  17.7km/h 47% 0.01in /  0.25mm 135 W/m2
14:29 37.8 °F /  3.2 °C 19.4 °F /  -7 °C 29.75in /  1007.3hPa SW 0.5mph /  0.8km/h 11mph /  17.7km/h 47% 0.01in /  0.25mm 218 W/m2
14:34 37.7 °F /  3.2 °C 18.8 °F /  -7.3 °C 29.75in /  1007.3hPa SW 1mph /  1.6km/h 11mph /  17.7km/h 46% 0.01in /  0.25mm 163 W/m2
14:39 37.4 °F /  3 °C 18.4 °F /  -7.6 °C 29.75in /  1007.3hPa SW 0.7mph /  1.1km/h 6mph /  9.7km/h 45.7% 0.00in /  0mm 102 W/m2
14:44 37 °F /  2.8 °C 18.2 °F /  -7.7 °C 29.75in /  1007.3hPa SW 1.9mph /  3.1km/h 6mph /  9.7km/h 46% 0.00in /  0mm 111 W/m2
14:49 36.6 °F /  2.6 °C 18.3 °F /  -7.6 °C 29.75in /  1007.3hPa SW 0.8mph /  1.3km/h 6mph /  9.7km/h 46.9% 0.00in /  0mm 111 W/m2
14:54 36.5 °F /  2.5 °C 19.3 °F /  -7.1 °C 29.75in /  1007.3hPa SW 0.9mph /  1.4km/h 6mph /  9.7km/h 49.3% 0.00in /  0mm 83 W/m2
14:59 36.3 °F /  2.4 °C 19.2 °F /  -7.1 °C 29.74in /  1007hPa SW 0.4mph /  0.6km/h 6mph /  9.7km/h 49.5% 0.00in /  0mm 91 W/m2
15:04 36.2 °F /  2.3 °C 19.2 °F /  -7.1 °C 29.74in /  1007hPa SW 0.7mph /  1.1km/h 6mph /  9.7km/h 49.6% 0.00in /  0mm 98 W/m2
15:09 36.1 °F /  2.3 °C 19.5 °F /  -6.9 °C 29.74in /  1007hPa SW 0.3mph /  0.5km/h 4mph /  6.4km/h 50.4% 0.00in /  0mm 98 W/m2
15:14 36 °F /  2.2 °C 19.5 °F /  -6.9 °C 29.74in /  1007hPa SW 1.6mph /  2.6km/h 6mph /  9.7km/h 50.7% 0.00in /  0mm 104 W/m2
15:19 36 °F /  2.2 °C 19.7 °F /  -6.8 °C 29.74in /  1007hPa WSW 0.9mph /  1.4km/h 6mph /  9.7km/h 51% 0.00in /  0mm 104 W/m2
15:24 36 °F /  2.2 °C 18.9 °F /  -7.3 °C 29.75in /  1007.3hPa WSW 1.2mph /  1.9km/h 6mph /  9.7km/h 49.5% 0.00in /  0mm 98 W/m2
15:29 36 °F /  2.2 °C 18.6 °F /  -7.4 °C 29.75in /  1007.3hPa WSW 0.9mph /  1.4km/h 6mph /  9.7km/h 48.7% 0.00in /  0mm 81 W/m2
15:34 36 °F /  2.2 °C 18.9 °F /  -7.3 °C 29.75in /  1007.3hPa WSW 0.8mph /  1.3km/h 6mph /  9.7km/h 49.3% 0.00in /  0mm 69 W/m2
15:39 36 °F /  2.2 °C 18.7 °F /  -7.4 °C 29.75in /  1007.3hPa SW 2mph /  3.2km/h 8mph /  12.9km/h 49.1% 0.00in /  0mm 63 W/m2
15:44 36 °F /  2.2 °C 18.6 °F /  -7.4 °C 29.75in /  1007.3hPa SW 1.6mph /  2.6km/h 8mph /  12.9km/h 48.9% 0.00in /  0mm 56 W/m2
15:49 36 °F /  2.2 °C 18.5 °F /  -7.5 °C 29.75in /  1007.3hPa SW 1.3mph /  2.1km/h 10mph /  16.1km/h 48.7% 0.00in /  0mm 53 W/m2
15:54 35.9 °F /  2.2 °C 18.1 °F /  -7.7 °C 29.74in /  1007hPa SW 1.4mph /  2.3km/h 10mph /  16.1km/h 48% 0.00in /  0mm 40 W/m2
15:59 35.8 °F /  2.1 °C 18.1 °F /  -7.7 °C 29.74in /  1007hPa SW 1.2mph /  1.9km/h 10mph /  16.1km/h 48% 0.00in /  0mm 33 W/m2
16:00 35.8 °F /  2.1 °C 18 °F /  -7.8 °C 29.74in /  1007hPa SW 2mph /  3.2km/h 10mph /  16.1km/h 48% 0.00in /  0mm 26 W/m2
16:09 35.6 °F /  2 °C 18.3 °F /  -7.6 °C 29.74in /  1007hPa SW 1mph /  1.6km/h 5mph /  8km/h 49% 0.00in /  0mm 23 W/m2
16:14 35.4 °F /  1.9 °C 18 °F /  -7.8 °C 29.74in /  1007hPa SW 0.1mph /  0.2km/h 5mph /  8km/h 48.7% 0.00in /  0mm 19 W/m2
16:19 35.2 °F /  1.8 °C 17.9 °F /  -7.8 °C 29.74in /  1007hPa SW 0.1mph /  0.2km/h 5mph /  8km/h 49% 0.00in /  0mm 14 W/m2
16:24 34.9 °F /  1.6 °C 18.4 °F /  -7.6 °C 29.74in /  1007hPa SW 0.4mph /  0.6km/h 5mph /  8km/h 50.6% 0.00in /  0mm 16 W/m2
16:29 34.7 °F /  1.5 °C 19.2 °F /  -7.1 °C 29.74in /  1007hPa SW 0.2mph /  0.3km/h 5mph /  8km/h 52.8% 0.00in /  0mm 16 W/m2
16:34 34.4 °F /  1.3 °C 19.4 °F /  -7 °C 29.74in /  1007hPa SW 0.1mph /  0.2km/h 5mph /  8km/h 53.8% 0.00in /  0mm 16 W/m2
16:39 34.3 °F /  1.3 °C 19.7 °F /  -6.8 °C 29.74in /  1007hPa Calm   1mph /  1.6km/h 54.9% 0.00in /  0mm 14 W/m2
16:44 34.1 °F /  1.2 °C 19.7 °F /  -6.8 °C 29.73in /  1006.7hPa SW 0.1mph /  0.2km/h 2mph /  3.2km/h 55.3% 0.00in /  0mm 12 W/m2
16:49 33.9 °F /  1.1 °C 19.8 °F /  -6.8 °C 29.74in /  1007hPa SW 0.3mph /  0.5km/h 3mph /  4.8km/h 55.9% 0.00in /  0mm 7 W/m2
16:54 33.7 °F /  0.9 °C 19.7 °F /  -6.8 °C 29.74in /  1007hPa SW 0.2mph /  0.3km/h 3mph /  4.8km/h 56% 0.00in /  0mm 0 W/m2
16:59 33.6 °F /  0.9 °C 19.6 °F /  -6.9 °C 29.74in /  1007hPa SW 0.2mph /  0.3km/h 3mph /  4.8km/h 56% 0.00in /  0mm 0 W/m2
17:04 33.4 °F /  0.8 °C 19.8 °F /  -6.8 °C 29.74in /  1007hPa SW 0.3mph /  0.5km/h 3mph /  4.8km/h 57% 0.00in /  0mm 0 W/m2
17:09 33.3 °F /  0.7 °C 19.7 °F /  -6.8 °C 29.73in /  1006.7hPa SW 0.1mph /  0.2km/h 2mph /  3.2km/h 57% 0.00in /  0mm 0 W/m2
17:14 33.2 °F /  0.7 °C 19.8 °F /  -6.8 °C 29.74in /  1007hPa Calm   2mph /  3.2km/h 57.3% 0.00in /  0mm 0 W/m2
17:19 33.1 °F /  0.6 °C 20.1 °F /  -6.6 °C 29.74in /  1007hPa Calm   2mph /  3.2km/h 58.3% 0.00in /  0mm 0 W/m2
17:24 33 °F /  0.6 °C 20.3 °F /  -6.5 °C 29.74in /  1007hPa Calm   2mph /  3.2km/h 59% 0.00in /  0mm 0 W/m2
17:29 32.9 °F /  0.5 °C 19.9 °F /  -6.7 °C 29.74in /  1007hPa SW 0.1mph /  0.2km/h 2mph /  3.2km/h 58.3% 0.00in /  0mm 0 W/m2
17:34 32.9 °F /  0.5 °C 20.1 °F /  -6.6 °C 29.74in /  1007hPa Calm   2mph /  3.2km/h 59% 0.00in /  0mm 0 W/m2
17:39 32.8 °F /  0.4 °C 20.1 °F /  -6.6 °C 29.74in /  1007hPa SW 0.1mph /  0.2km/h 2mph /  3.2km/h 59% 0.00in /  0mm 0 W/m2
17:44 32.8 °F /  0.4 °C 20.1 °F /  -6.6 °C 29.74in /  1007hPa SW 0.2mph /  0.3km/h 2mph /  3.2km/h 59% 0.00in /  0mm 0 W/m2
17:49 32.8 °F /  0.4 °C 20 °F /  -6.7 °C 29.74in /  1007hPa Calm   2mph /  3.2km/h 59% 0.00in /  0mm 0 W/m2
17:54 32.7 °F /  0.4 °C 20.1 °F /  -6.6 °C 29.74in /  1007hPa SW 0.3mph /  0.5km/h 3mph /  4.8km/h 59.2% 0.00in /  0mm 0 W/m2
17:59 32.6 °F /  0.3 °C 19.9 °F /  -6.7 °C 29.74in /  1007hPa Calm   3mph /  4.8km/h 59.1% 0.00in /  0mm 0 W/m2
18:04 32.6 °F /  0.3 °C 20.1 °F /  -6.6 °C 29.75in /  1007.3hPa Calm   3mph /  4.8km/h 59.7% 0.00in /  0mm 0 W/m2
18:09 32.6 °F /  0.3 °C 20.3 °F /  -6.5 °C 29.75in /  1007.3hPa Calm     60% 0.00in /  0mm 0 W/m2
18:14 32.5 °F /  0.3 °C 20.2 °F /  -6.6 °C 29.75in /  1007.3hPa Calm     60% 0.00in /  0mm 0 W/m2
18:19 32.5 °F /  0.3 °C 20.2 °F /  -6.6 °C 29.75in /  1007.3hPa SW 0.1mph /  0.2km/h 2mph /  3.2km/h 60% 0.00in /  0mm 0 W/m2
18:24 32.4 °F /  0.2 °C 20.1 °F /  -6.6 °C 29.75in /  1007.3hPa Calm   2mph /  3.2km/h 60% 0.00in /  0mm 0 W/m2
18:29 32.3 °F /  0.2 °C 20.3 °F /  -6.5 °C 29.75in /  1007.3hPa Calm   2mph /  3.2km/h 60.7% 0.00in /  0mm 0 W/m2
18:34 32.2 °F /  0.1 °C 20.3 °F /  -6.5 °C 29.75in /  1007.3hPa Calm   2mph /  3.2km/h 61% 0.00in /  0mm 0 W/m2
18:39 32.1 °F /  0.1 °C 20.2 °F /  -6.6 °C 29.75in /  1007.3hPa Calm     61% 0.00in /  0mm 0 W/m2
18:44 32 °F /  0 °C 20.3 °F /  -6.5 °C 29.76in /  1007.7hPa Calm     61.7% 0.00in /  0mm 0 W/m2
18:49 31.9 °F /  -0.1 °C 20.4 °F /  -6.4 °C 29.76in /  1007.7hPa Calm     62% 0.00in /  0mm 0 W/m2
18:54 31.9 °F /  -0.1 °C 20.4 °F /  -6.4 °C 29.76in /  1007.7hPa Calm     62% 0.00in /  0mm 0 W/m2
18:59 31.9 °F /  -0.1 °C 20.4 °F /  -6.4 °C 29.76in /  1007.7hPa Calm   2mph /  3.2km/h 62% 0.00in /  0mm 0 W/m2
19:04 31.9 °F /  -0.1 °C 20.3 °F /  -6.5 °C 29.76in /  1007.7hPa SW 0.2mph /  0.3km/h 2mph /  3.2km/h 62% 0.00in /  0mm 0 W/m2
19:09 31.9 °F /  -0.1 °C 20.4 °F /  -6.4 °C 29.76in /  1007.7hPa SW 0.2mph /  0.3km/h 2mph /  3.2km/h 62.2% 0.00in /  0mm 0 W/m2
19:14 31.9 °F /  -0.1 °C 20.6 °F /  -6.3 °C 29.77in /  1008hPa West 1.9mph /  3.1km/h 6mph /  9.7km/h 62.5% 0.00in /  0mm 0 W/m2
19:19 32 °F /  0 °C 20.5 °F /  -6.4 °C 29.77in /  1008hPa WSW 2.8mph /  4.5km/h 9mph /  14.5km/h 62% 0.00in /  0mm 0 W/m2
19:24 32.1 °F /  0.1 °C 20.9 °F /  -6.2 °C 29.77in /  1008hPa WSW 2mph /  3.2km/h 9mph /  14.5km/h 63% 0.00in /  0mm 0 W/m2
19:29 32.3 °F /  0.2 °C 21.4 °F /  -5.9 °C 29.77in /  1008hPa WSW 1.1mph /  1.8km/h 9mph /  14.5km/h 63.9% 0.00in /  0mm 0 W/m2
19:34 32.3 °F /  0.2 °C 21.5 °F /  -5.8 °C 29.77in /  1008hPa WSW 0.8mph /  1.3km/h 9mph /  14.5km/h 64% 0.00in /  0mm 0 W/m2
19:39 32.3 °F /  0.2 °C 21.7 °F /  -5.7 °C 29.77in /  1008hPa WSW 0.2mph /  0.3km/h 5mph /  8km/h 64.6% 0.00in /  0mm 0 W/m2
19:44 32.3 °F /  0.2 °C 22 °F /  -5.6 °C 29.77in /  1008hPa WSW 0.7mph /  1.1km/h 5mph /  8km/h 65.4% 0.00in /  0mm 0 W/m2
19:49 32.3 °F /  0.2 °C 22.2 °F /  -5.4 °C 29.77in /  1008hPa WSW 1.5mph /  2.4km/h 5mph /  8km/h 66% 0.00in /  0mm 0 W/m2
19:54 32.2 °F /  0.1 °C 22.3 °F /  -5.4 °C 29.77in /  1008hPa WSW 2.1mph /  3.4km/h 9mph /  14.5km/h 66.3% 0.00in /  0mm 0 W/m2
19:59 32.2 °F /  0.1 °C 22.7 °F /  -5.2 °C 29.77in /  1008hPa West 2.2mph /  3.5km/h 10mph /  16.1km/h 67.6% 0.00in /  0mm 0 W/m2
20:09 32.1 °F /  0.1 °C 23.1 °F /  -4.9 °C 29.77in /  1008hPa WSW 1.7mph /  2.7km/h 9mph /  14.5km/h 69% 0.00in /  0mm 0 W/m2
20:14 32 °F /  0 °C 23.3 °F /  -4.8 °C 29.77in /  1008hPa WSW 2.5mph /  4km/h 9mph /  14.5km/h 69.9% 0.00in /  0mm 0 W/m2
20:19 31.9 °F /  -0.1 °C 23.6 °F /  -4.7 °C 29.78in /  1008.4hPa WSW 1.5mph /  2.4km/h 9mph /  14.5km/h 71.1% 0.00in /  0mm 0 W/m2
20:24 31.8 °F /  -0.1 °C 23.8 °F /  -4.6 °C 29.78in /  1008.4hPa WSW 1.2mph /  1.9km/h 9mph /  14.5km/h 72% 0.00in /  0mm 0 W/m2
20:29 31.6 °F /  -0.2 °C 24 °F /  -4.4 °C 29.78in /  1008.4hPa WSW 1.4mph /  2.3km/h 9mph /  14.5km/h 73% 0.00in /  0mm 0 W/m2
20:34 31.5 °F /  -0.3 °C 24.1 °F /  -4.4 °C 29.78in /  1008.4hPa WSW 0.6mph /  1km/h 9mph /  14.5km/h 73.8% 0.00in /  0mm 0 W/m2
20:38 31.4 °F /  -0.3 °C 24.3 °F /  -4.3 °C 29.78in /  1008.4hPa Calm   4mph /  6.4km/h 74.7% 0.00in /  0mm 0 W/m2
Hartford County Weather
Compliments of Weather Underground - 2 mb